sensor_id;sensor_type;location;lat;lon;timestamp;temperature;humidity
15717;DHT22;7960;50.908;4.204;2022-10-04T00:01:02;11.90;99.90
15717;DHT22;7960;50.908;4.204;2022-10-04T00:03:33;11.50;99.90
15717;DHT22;7960;50.908;4.204;2022-10-04T00:06:03;11.30;99.90
15717;DHT22;7960;50.908;4.204;2022-10-04T00:08:37;11.50;99.90
15717;DHT22;7960;50.908;4.204;2022-10-04T00:11:13;11.60;99.90
15717;DHT22;7960;50.908;4.204;2022-10-04T00:13:47;11.60;99.90
15717;DHT22;7960;50.908;4.204;2022-10-04T00:16:20;11.40;99.90
15717;DHT22;7960;50.908;4.204;2022-10-04T00:19:00;11.20;99.90
15717;DHT22;7960;50.908;4.204;2022-10-04T00:25:14;11.40;99.90
15717;DHT22;7960;50.908;4.204;2022-10-04T00:28:14;11.40;99.90
15717;DHT22;7960;50.908;4.204;2022-10-04T00:30:42;11.20;99.90
15717;DHT22;7960;50.908;4.204;2022-10-04T00:33:08;11.00;99.90
15717;DHT22;7960;50.908;4.204;2022-10-04T00:35:47;10.80;99.90
15717;DHT22;7960;50.908;4.204;2022-10-04T00:38:24;11.00;99.90
15717;DHT22;7960;50.908;4.204;2022-10-04T00:40:56;11.30;99.90
15717;DHT22;7960;50.908;4.204;2022-10-04T00:43:28;11.40;99.90
15717;DHT22;7960;50.908;4.204;2022-10-04T00:45:59;11.50;99.90
15717;DHT22;7960;50.908;4.204;2022-10-04T00:48:39;11.50;99.90
15717;DHT22;7960;50.908;4.204;2022-10-04T00:51:17;11.40;99.90
15717;DHT22;7960;50.908;4.204;2022-10-04T00:53:56;11.50;99.90
15717;DHT22;7960;50.908;4.204;2022-10-04T00:56:30;11.40;99.90
15717;DHT22;7960;50.908;4.204;2022-10-04T00:59:16;11.10;99.90
15717;DHT22;7960;50.908;4.204;2022-10-04T01:01:48;10.70;99.90
15717;DHT22;7960;50.908;4.204;2022-10-04T01:04:32;10.80;99.90
15717;DHT22;7960;50.908;4.204;2022-10-04T01:07:02;11.00;99.90
15717;DHT22;7960;50.908;4.204;2022-10-04T01:09:32;10.80;99.90
15717;DHT22;7960;50.908;4.204;2022-10-04T01:12:08;10.70;99.90
15717;DHT22;7960;50.908;4.204;2022-10-04T01:14:45;10.70;99.90
15717;DHT22;7960;50.908;4.204;2022-10-04T01:17:13;10.90;99.90
15717;DHT22;7960;50.908;4.204;2022-10-04T01:19:48;10.80;99.90
15717;DHT22;7960;50.908;4.204;2022-10-04T01:22:35;10.70;99.90
15717;DHT22;7960;50.908;4.204;2022-10-04T01:25:03;10.60;99.90
15717;DHT22;7960;50.908;4.204;2022-10-04T01:27:33;10.50;99.90
15717;DHT22;7960;50.908;4.204;2022-10-04T01:30:01;10.50;99.90
15717;DHT22;7960;50.908;4.204;2022-10-04T01:32:30;10.50;99.90
15717;DHT22;7960;50.908;4.204;2022-10-04T01:34:57;10.40;99.90
15717;DHT22;7960;50.908;4.204;2022-10-04T01:37:25;10.40;99.90
15717;DHT22;7960;50.908;4.204;2022-10-04T01:39:52;10.60;99.90
15717;DHT22;7960;50.908;4.204;2022-10-04T01:42:22;10.80;99.90
15717;DHT22;7960;50.908;4.204;2022-10-04T01:44:53;10.90;99.90
15717;DHT22;7960;50.908;4.204;2022-10-04T01:47:27;10.90;99.90
15717;DHT22;7960;50.908;4.204;2022-10-04T01:50:01;11.00;99.90
15717;DHT22;7960;50.908;4.204;2022-10-04T01:52:34;10.80;99.90
15717;DHT22;7960;50.908;4.204;2022-10-04T01:55:06;10.60;99.90
15717;DHT22;7960;50.908;4.204;2022-10-04T01:57:39;10.60;99.90
15717;DHT22;7960;50.908;4.204;2022-10-04T02:00:09;10.60;99.90
15717;DHT22;7960;50.908;4.204;2022-10-04T02:02:40;10.60;99.90
15717;DHT22;7960;50.908;4.204;2022-10-04T02:05:11;10.60;99.90
15717;DHT22;7960;50.908;4.204;2022-10-04T02:07:41;10.80;99.90
15717;DHT22;7960;50.908;4.204;2022-10-04T02:10:10;10.70;99.90
15717;DHT22;7960;50.908;4.204;2022-10-04T02:12:43;10.80;99.90
15717;DHT22;7960;50.908;4.204;2022-10-04T02:15:11;10.70;99.90
15717;DHT22;7960;50.908;4.204;2022-10-04T02:17:40;10.80;99.90
15717;DHT22;7960;50.908;4.204;2022-10-04T02:20:13;10.60;99.90
15717;DHT22;7960;50.908;4.204;2022-10-04T02:22:43;10.80;99.90
15717;DHT22;7960;50.908;4.204;2022-10-04T02:25:12;10.70;99.90
15717;DHT22;7960;50.908;4.204;2022-10-04T02:27:39;10.80;99.90
15717;DHT22;7960;50.908;4.204;2022-10-04T02:30:08;10.70;99.90
15717;DHT22;7960;50.908;4.204;2022-10-04T02:32:36;10.70;99.90
15717;DHT22;7960;50.908;4.204;2022-10-04T02:35:22;10.90;99.90
15717;DHT22;7960;50.908;4.204;2022-10-04T02:37:55;10.80;99.90
15717;DHT22;7960;50.908;4.204;2022-10-04T02:40:28;10.90;99.90
15717;DHT22;7960;50.908;4.204;2022-10-04T02:42:59;10.90;99.90
15717;DHT22;7960;50.908;4.204;2022-10-04T02:45:42;10.90;99.90
15717;DHT22;7960;50.908;4.204;2022-10-04T02:48:20;10.60;99.90
15717;DHT22;7960;50.908;4.204;2022-10-04T02:50:53;10.50;99.90
15717;DHT22;7960;50.908;4.204;2022-10-04T02:53:25;10.70;99.90
15717;DHT22;7960;50.908;4.204;2022-10-04T02:55:55;10.70;99.90
15717;DHT22;7960;50.908;4.204;2022-10-04T02:58:24;10.60;99.90
15717;DHT22;7960;50.908;4.204;2022-10-04T03:00:54;10.40;99.90
15717;DHT22;7960;50.908;4.204;2022-10-04T03:03:24;10.40;99.90
15717;DHT22;7960;50.908;4.204;2022-10-04T03:05:57;10.40;99.90
15717;DHT22;7960;50.908;4.204;2022-10-04T03:08:29;10.40;99.90
15717;DHT22;7960;50.908;4.204;2022-10-04T03:10:58;10.10;99.90
15717;DHT22;7960;50.908;4.204;2022-10-04T03:13:27;10.10;99.90
15717;DHT22;7960;50.908;4.204;2022-10-04T03:15:54;10.20;99.90
15717;DHT22;7960;50.908;4.204;2022-10-04T03:18:21;10.40;99.90
15717;DHT22;7960;50.908;4.204;2022-10-04T03:20:48;10.40;99.90
15717;DHT22;7960;50.908;4.204;2022-10-04T03:23:18;10.40;99.90
15717;DHT22;7960;50.908;4.204;2022-10-04T03:25:51;10.50;99.90
15717;DHT22;7960;50.908;4.204;2022-10-04T03:28:18;10.50;99.90
15717;DHT22;7960;50.908;4.204;2022-10-04T03:30:46;10.60;99.90
15717;DHT22;7960;50.908;4.204;2022-10-04T03:33:19;10.30;99.90
15717;DHT22;7960;50.908;4.204;2022-10-04T03:35:49;10.30;99.90
15717;DHT22;7960;50.908;4.204;2022-10-04T03:38:18;10.10;99.90
15717;DHT22;7960;50.908;4.204;2022-10-04T03:40:51;10.00;99.90
15717;DHT22;7960;50.908;4.204;2022-10-04T03:43:22;10.00;99.90
15717;DHT22;7960;50.908;4.204;2022-10-04T03:45:51;9.90;99.90
15717;DHT22;7960;50.908;4.204;2022-10-04T03:48:26;9.80;99.90
15717;DHT22;7960;50.908;4.204;2022-10-04T03:50:54;9.90;99.90
15717;DHT22;7960;50.908;4.204;2022-10-04T03:53:29;10.00;99.90
15717;DHT22;7960;50.908;4.204;2022-10-04T03:55:58;9.90;99.90
15717;DHT22;7960;50.908;4.204;2022-10-04T03:58:27;9.90;99.90
15717;DHT22;7960;50.908;4.204;2022-10-04T04:01:03;9.90;99.90
15717;DHT22;7960;50.908;4.204;2022-10-04T04:03:40;9.80;99.90
15717;DHT22;7960;50.908;4.204;2022-10-04T04:06:14;9.70;99.90
15717;DHT22;7960;50.908;4.204;2022-10-04T04:08:46;9.60;99.90
15717;DHT22;7960;50.908;4.204;2022-10-04T04:11:18;9.90;99.90
15717;DHT22;7960;50.908;4.204;2022-10-04T04:13:51;10.00;99.90
15717;DHT22;7960;50.908;4.204;2022-10-04T04:16:21;10.00;99.90
15717;DHT22;7960;50.908;4.204;2022-10-04T04:18:51;9.80;99.90
15717;DHT22;7960;50.908;4.204;2022-10-04T04:21:20;9.60;99.90
15717;DHT22;7960;50.908;4.204;2022-10-04T04:23:50;9.60;99.90
15717;DHT22;7960;50.908;4.204;2022-10-04T04:26:24;9.50;99.90
15717;DHT22;7960;50.908;4.204;2022-10-04T04:28:54;9.70;99.90
15717;DHT22;7960;50.908;4.204;2022-10-04T04:31:24;9.80;99.90
15717;DHT22;7960;50.908;4.204;2022-10-04T04:33:55;9.80;99.90
15717;DHT22;7960;50.908;4.204;2022-10-04T04:36:24;9.90;99.90
15717;DHT22;7960;50.908;4.204;2022-10-04T04:38:51;9.90;99.90
15717;DHT22;7960;50.908;4.204;2022-10-04T04:41:37;9.70;99.90
15717;DHT22;7960;50.908;4.204;2022-10-04T04:44:15;9.60;99.90
15717;DHT22;7960;50.908;4.204;2022-10-04T04:46:42;9.60;99.90
15717;DHT22;7960;50.908;4.204;2022-10-04T04:49:10;9.70;99.90
15717;DHT22;7960;50.908;4.204;2022-10-04T04:51:38;9.80;99.90
15717;DHT22;7960;50.908;4.204;2022-10-04T04:54:06;10.00;99.90
15717;DHT22;7960;50.908;4.204;2022-10-04T04:56:33;9.70;99.90
15717;DHT22;7960;50.908;4.204;2022-10-04T04:59:05;9.70;99.90
15717;DHT22;7960;50.908;4.204;2022-10-04T05:01:34;9.50;99.90
15717;DHT22;7960;50.908;4.204;2022-10-04T05:04:04;9.60;99.90
15717;DHT22;7960;50.908;4.204;2022-10-04T05:06:32;9.60;99.90
15717;DHT22;7960;50.908;4.204;2022-10-04T05:08:59;9.60;99.90
15717;DHT22;7960;50.908;4.204;2022-10-04T05:11:28;9.60;99.90
15717;DHT22;7960;50.908;4.204;2022-10-04T05:13:59;9.60;99.90
15717;DHT22;7960;50.908;4.204;2022-10-04T05:16:36;9.50;99.90
15717;DHT22;7960;50.908;4.204;2022-10-04T05:19:07;9.40;99.90
15717;DHT22;7960;50.908;4.204;2022-10-04T05:21:37;9.40;99.90
15717;DHT22;7960;50.908;4.204;2022-10-04T05:24:10;9.50;99.90
15717;DHT22;7960;50.908;4.204;2022-10-04T05:26:40;9.60;99.90
15717;DHT22;7960;50.908;4.204;2022-10-04T05:29:11;9.80;99.90
15717;DHT22;7960;50.908;4.204;2022-10-04T05:31:45;9.80;99.90
15717;DHT22;7960;50.908;4.204;2022-10-04T05:34:21;9.90;99.90
15717;DHT22;7960;50.908;4.204;2022-10-04T05:37:20;9.80;99.90
15717;DHT22;7960;50.908;4.204;2022-10-04T05:40:01;9.80;99.90
15717;DHT22;7960;50.908;4.204;2022-10-04T05:42:35;9.90;99.90
15717;DHT22;7960;50.908;4.204;2022-10-04T05:45:13;9.80;99.90
15717;DHT22;7960;50.908;4.204;2022-10-04T05:47:42;10.00;99.90
15717;DHT22;7960;50.908;4.204;2022-10-04T05:50:15;9.70;99.90
15717;DHT22;7960;50.908;4.204;2022-10-04T05:52:43;9.80;99.90
15717;DHT22;7960;50.908;4.204;2022-10-04T05:55:21;9.70;99.90
15717;DHT22;7960;50.908;4.204;2022-10-04T05:58:12;9.90;99.90
15717;DHT22;7960;50.908;4.204;2022-10-04T06:00:52;9.80;99.90
15717;DHT22;7960;50.908;4.204;2022-10-04T06:03:35;9.60;99.90
15717;DHT22;7960;50.908;4.204;2022-10-04T06:06:14;9.40;99.90
15717;DHT22;7960;50.908;4.204;2022-10-04T06:08:49;9.70;99.90
15717;DHT22;7960;50.908;4.204;2022-10-04T06:11:33;9.80;99.90
15717;DHT22;7960;50.908;4.204;2022-10-04T06:14:23;9.50;99.90
15717;DHT22;7960;50.908;4.204;2022-10-04T06:17:09;9.60;99.90
15717;DHT22;7960;50.908;4.204;2022-10-04T06:20:00;9.60;99.90
15717;DHT22;7960;50.908;4.204;2022-10-04T06:22:32;9.80;99.90
15717;DHT22;7960;50.908;4.204;2022-10-04T06:25:03;9.90;99.90
15717;DHT22;7960;50.908;4.204;2022-10-04T06:27:35;10.00;99.90
15717;DHT22;7960;50.908;4.204;2022-10-04T06:30:11;9.90;99.90
15717;DHT22;7960;50.908;4.204;2022-10-04T06:32:56;10.00;99.90
15717;DHT22;7960;50.908;4.204;2022-10-04T06:35:51;10.10;99.90
15717;DHT22;7960;50.908;4.204;2022-10-04T06:41:38;10.30;99.90
15717;DHT22;7960;50.908;4.204;2022-10-04T06:44:22;10.20;99.90
15717;DHT22;7960;50.908;4.204;2022-10-04T06:47:02;10.10;99.90
15717;DHT22;7960;50.908;4.204;2022-10-04T06:49:38;9.90;99.90
15717;DHT22;7960;50.908;4.204;2022-10-04T06:52:27;9.80;99.90
15717;DHT22;7960;50.908;4.204;2022-10-04T06:58:12;9.60;99.90
15717;DHT22;7960;50.908;4.204;2022-10-04T07:00:50;9.60;99.90
15717;DHT22;7960;50.908;4.204;2022-10-04T07:03:23;9.70;99.90
15717;DHT22;7960;50.908;4.204;2022-10-04T07:05:54;9.70;99.90
15717;DHT22;7960;50.908;4.204;2022-10-04T07:08:29;9.80;99.90
15717;DHT22;7960;50.908;4.204;2022-10-04T07:11:04;9.90;99.90
15717;DHT22;7960;50.908;4.204;2022-10-04T07:13:45;10.00;99.90
15717;DHT22;7960;50.908;4.204;2022-10-04T07:16:27;10.20;99.90
15717;DHT22;7960;50.908;4.204;2022-10-04T07:19:06;10.40;99.90
15717;DHT22;7960;50.908;4.204;2022-10-04T07:21:39;10.50;99.90
15717;DHT22;7960;50.908;4.204;2022-10-04T07:24:11;10.50;99.90
15717;DHT22;7960;50.908;4.204;2022-10-04T07:26:46;10.50;99.90
15717;DHT22;7960;50.908;4.204;2022-10-04T07:29:18;10.60;99.90
15717;DHT22;7960;50.908;4.204;2022-10-04T07:31:51;10.70;99.90
15717;DHT22;7960;50.908;4.204;2022-10-04T07:34:22;10.80;99.90
15717;DHT22;7960;50.908;4.204;2022-10-04T07:36:53;10.90;99.90
15717;DHT22;7960;50.908;4.204;2022-10-04T07:39:26;10.90;99.90
15717;DHT22;7960;50.908;4.204;2022-10-04T07:41:56;11.00;99.90
15717;DHT22;7960;50.908;4.204;2022-10-04T07:44:32;11.20;99.90
15717;DHT22;7960;50.908;4.204;2022-10-04T07:47:04;11.30;99.90
15717;DHT22;7960;50.908;4.204;2022-10-04T07:49:38;11.30;99.90
15717;DHT22;7960;50.908;4.204;2022-10-04T07:52:29;11.40;99.90
15717;DHT22;7960;50.908;4.204;2022-10-04T07:55:07;11.50;99.90
15717;DHT22;7960;50.908;4.204;2022-10-04T07:57:42;11.60;99.90
15717;DHT22;7960;50.908;4.204;2022-10-04T08:00:15;11.60;99.90
15717;DHT22;7960;50.908;4.204;2022-10-04T08:02:53;11.60;99.90
15717;DHT22;7960;50.908;4.204;2022-10-04T08:05:25;11.60;99.90
15717;DHT22;7960;50.908;4.204;2022-10-04T08:08:06;11.60;99.90
15717;DHT22;7960;50.908;4.204;2022-10-04T08:10:47;11.60;99.90
15717;DHT22;7960;50.908;4.204;2022-10-04T08:13:21;11.60;99.90
15717;DHT22;7960;50.908;4.204;2022-10-04T08:15:51;11.50;99.90
15717;DHT22;7960;50.908;4.204;2022-10-04T08:18:35;11.60;99.90
15717;DHT22;7960;50.908;4.204;2022-10-04T08:21:07;11.70;99.90
15717;DHT22;7960;50.908;4.204;2022-10-04T08:23:43;11.90;99.90
15717;DHT22;7960;50.908;4.204;2022-10-04T08:26:36;12.00;99.90
15717;DHT22;7960;50.908;4.204;2022-10-04T08:29:19;12.20;99.90
15717;DHT22;7960;50.908;4.204;2022-10-04T08:32:22;12.40;99.90
15717;DHT22;7960;50.908;4.204;2022-10-04T08:35:06;12.40;99.90
15717;DHT22;7960;50.908;4.204;2022-10-04T08:37:50;12.70;99.90
15717;DHT22;7960;50.908;4.204;2022-10-04T08:40:55;12.80;99.90
15717;DHT22;7960;50.908;4.204;2022-10-04T08:47:04;13.10;99.90
15717;DHT22;7960;50.908;4.204;2022-10-04T08:52:52;13.70;99.90
15717;DHT22;7960;50.908;4.204;2022-10-04T08:56:00;13.70;99.90
15717;DHT22;7960;50.908;4.204;2022-10-04T09:01:52;13.90;99.90
15717;DHT22;7960;50.908;4.204;2022-10-04T09:04:40;14.00;99.90
15717;DHT22;7960;50.908;4.204;2022-10-04T09:08:05;14.00;99.90
15717;DHT22;7960;50.908;4.204;2022-10-04T09:10:47;14.00;99.90
15717;DHT22;7960;50.908;4.204;2022-10-04T09:13:32;14.00;99.90
15717;DHT22;7960;50.908;4.204;2022-10-04T09:16:13;14.10;99.90
15717;DHT22;7960;50.908;4.204;2022-10-04T09:19:00;14.30;99.90
15717;DHT22;7960;50.908;4.204;2022-10-04T09:21:41;14.40;99.90
15717;DHT22;7960;50.908;4.204;2022-10-04T09:24:34;14.70;99.90
15717;DHT22;7960;50.908;4.204;2022-10-04T09:27:14;14.90;99.90
15717;DHT22;7960;50.908;4.204;2022-10-04T09:30:11;14.80;99.90
15717;DHT22;7960;50.908;4.204;2022-10-04T09:33:15;15.00;99.90
15717;DHT22;7960;50.908;4.204;2022-10-04T09:36:04;15.10;99.90
15717;DHT22;7960;50.908;4.204;2022-10-04T09:41:51;15.40;99.90
15717;DHT22;7960;50.908;4.204;2022-10-04T09:44:51;15.60;99.90
15717;DHT22;7960;50.908;4.204;2022-10-04T09:47:30;15.80;99.90
15717;DHT22;7960;50.908;4.204;2022-10-04T09:50:30;16.00;99.90
15717;DHT22;7960;50.908;4.204;2022-10-04T09:53:13;16.10;99.90
15717;DHT22;7960;50.908;4.204;2022-10-04T09:56:11;16.30;99.90
15717;DHT22;7960;50.908;4.204;2022-10-04T09:58:56;16.60;99.90
15717;DHT22;7960;50.908;4.204;2022-10-04T10:01:34;16.70;99.90
15717;DHT22;7960;50.908;4.204;2022-10-04T10:07:29;16.70;99.90
15717;DHT22;7960;50.908;4.204;2022-10-04T10:10:07;16.60;99.90
15717;DHT22;7960;50.908;4.204;2022-10-04T10:13:13;16.30;99.90
15717;DHT22;7960;50.908;4.204;2022-10-04T10:16:11;16.40;99.90
15717;DHT22;7960;50.908;4.204;2022-10-04T10:18:52;16.50;99.90
15717;DHT22;7960;50.908;4.204;2022-10-04T10:21:37;16.70;99.90
15717;DHT22;7960;50.908;4.204;2022-10-04T10:27:07;16.90;99.90
15717;DHT22;7960;50.908;4.204;2022-10-04T10:30:02;17.10;99.90
15717;DHT22;7960;50.908;4.204;2022-10-04T10:36:07;16.90;99.90
15717;DHT22;7960;50.908;4.204;2022-10-04T10:38:53;17.00;99.90
15717;DHT22;7960;50.908;4.204;2022-10-04T10:41:55;17.10;99.90
15717;DHT22;7960;50.908;4.204;2022-10-04T10:44:40;17.10;99.90
15717;DHT22;7960;50.908;4.204;2022-10-04T10:47:24;17.10;99.90
15717;DHT22;7960;50.908;4.204;2022-10-04T10:50:06;17.10;99.90
15717;DHT22;7960;50.908;4.204;2022-10-04T10:53:18;17.10;99.90
15717;DHT22;7960;50.908;4.204;2022-10-04T11:02:24;17.80;99.90
15717;DHT22;7960;50.908;4.204;2022-10-04T11:05:14;17.90;99.90
15717;DHT22;7960;50.908;4.204;2022-10-04T11:07:51;17.90;99.90
15717;DHT22;7960;50.908;4.204;2022-10-04T11:10:57;18.10;99.90
15717;DHT22;7960;50.908;4.204;2022-10-04T11:13:45;17.90;99.90
15717;DHT22;7960;50.908;4.204;2022-10-04T11:16:34;17.90;99.90
15717;DHT22;7960;50.908;4.204;2022-10-04T11:19:38;18.10;99.90
15717;DHT22;7960;50.908;4.204;2022-10-04T11:25:43;18.00;99.90
15717;DHT22;7960;50.908;4.204;2022-10-04T11:28:17;18.10;99.90
15717;DHT22;7960;50.908;4.204;2022-10-04T11:31:16;18.30;99.90
15717;DHT22;7960;50.908;4.204;2022-10-04T11:34:14;18.40;99.90
15717;DHT22;7960;50.908;4.204;2022-10-04T11:36:55;18.60;99.90
15717;DHT22;7960;50.908;4.204;2022-10-04T11:39:56;18.40;99.90
15717;DHT22;7960;50.908;4.204;2022-10-04T11:42:43;18.10;99.90
15717;DHT22;7960;50.908;4.204;2022-10-04T11:45:36;18.30;99.90
15717;DHT22;7960;50.908;4.204;2022-10-04T11:48:14;18.50;99.90
15717;DHT22;7960;50.908;4.204;2022-10-04T11:50:58;18.90;99.90
15717;DHT22;7960;50.908;4.204;2022-10-04T11:56:57;19.00;99.90
15717;DHT22;7960;50.908;4.204;2022-10-04T11:59:38;18.90;99.90
15717;DHT22;7960;50.908;4.204;2022-10-04T12:02:43;18.90;99.90
15717;DHT22;7960;50.908;4.204;2022-10-04T12:05:59;19.10;99.90
15717;DHT22;7960;50.908;4.204;2022-10-04T12:08:44;19.20;99.90
15717;DHT22;7960;50.908;4.204;2022-10-04T12:11:53;19.10;99.90
15717;DHT22;7960;50.908;4.204;2022-10-04T12:15:06;19.20;99.90
15717;DHT22;7960;50.908;4.204;2022-10-04T12:18:12;19.40;99.90
15717;DHT22;7960;50.908;4.204;2022-10-04T12:21:09;19.60;99.90
15717;DHT22;7960;50.908;4.204;2022-10-04T12:24:15;19.60;99.90
15717;DHT22;7960;50.908;4.204;2022-10-04T12:30:25;19.80;99.90
15717;DHT22;7960;50.908;4.204;2022-10-04T12:33:02;20.20;99.90
15717;DHT22;7960;50.908;4.204;2022-10-04T12:35:39;20.30;99.90
15717;DHT22;7960;50.908;4.204;2022-10-04T12:38:33;20.20;99.90
15717;DHT22;7960;50.908;4.204;2022-10-04T12:41:09;20.40;99.90
15717;DHT22;7960;50.908;4.204;2022-10-04T12:43:49;20.50;99.90
15717;DHT22;7960;50.908;4.204;2022-10-04T12:46:29;20.80;99.90
15717;DHT22;7960;50.908;4.204;2022-10-04T12:49:12;20.80;99.90
15717;DHT22;7960;50.908;4.204;2022-10-04T12:51:50;20.50;99.90
15717;DHT22;7960;50.908;4.204;2022-10-04T12:54:29;20.80;99.90
15717;DHT22;7960;50.908;4.204;2022-10-04T12:59:54;21.20;99.90
15717;DHT22;7960;50.908;4.204;2022-10-04T13:02:35;21.00;99.90
15717;DHT22;7960;50.908;4.204;2022-10-04T13:05:12;21.00;99.90
15717;DHT22;7960;50.908;4.204;2022-10-04T13:08:07;21.00;99.90
15717;DHT22;7960;50.908;4.204;2022-10-04T13:52:58;23.20;99.90
15717;DHT22;7960;50.908;4.204;2022-10-04T13:55:51;23.30;99.90
15717;DHT22;7960;50.908;4.204;2022-10-04T13:58:46;23.00;99.90
15717;DHT22;7960;50.908;4.204;2022-10-04T14:04:35;23.90;99.90
15717;DHT22;7960;50.908;4.204;2022-10-04T14:07:28;23.10;99.90
15717;DHT22;7960;50.908;4.204;2022-10-04T14:10:02;23.70;99.90
15717;DHT22;7960;50.908;4.204;2022-10-04T14:13:26;23.10;99.90
15717;DHT22;7960;50.908;4.204;2022-10-04T14:19:39;23.90;99.80
15717;DHT22;7960;50.908;4.204;2022-10-04T14:22:29;23.80;99.70
15717;DHT22;7960;50.908;4.204;2022-10-04T14:25:21;23.50;99.90
15717;DHT22;7960;50.908;4.204;2022-10-04T14:28:17;23.10;99.60
15717;DHT22;7960;50.908;4.204;2022-10-04T14:31:02;23.20;99.50
15717;DHT22;7960;50.908;4.204;2022-10-04T14:33:54;22.90;99.20
15717;DHT22;7960;50.908;4.204;2022-10-04T14:37:09;22.90;99.60
15717;DHT22;7960;50.908;4.204;2022-10-04T14:40:06;23.60;99.10
15717;DHT22;7960;50.908;4.204;2022-10-04T14:42:54;22.80;99.00
15717;DHT22;7960;50.908;4.204;2022-10-04T14:45:37;22.50;99.90
15717;DHT22;7960;50.908;4.204;2022-10-04T14:48:27;22.00;99.90
15717;DHT22;7960;50.908;4.204;2022-10-04T14:51:16;22.00;99.90
15717;DHT22;7960;50.908;4.204;2022-10-04T14:53:57;22.70;99.90
15717;DHT22;7960;50.908;4.204;2022-10-04T14:56:47;23.50;99.30
15717;DHT22;7960;50.908;4.204;2022-10-04T14:59:38;23.60;98.70
15717;DHT22;7960;50.908;4.204;2022-10-04T15:02:38;23.00;98.80
15717;DHT22;7960;50.908;4.204;2022-10-04T15:05:28;22.30;99.50
15717;DHT22;7960;50.908;4.204;2022-10-04T15:08:21;22.20;99.90
15717;DHT22;7960;50.908;4.204;2022-10-04T15:10:52;22.30;99.90
15717;DHT22;7960;50.908;4.204;2022-10-04T15:13:26;22.10;99.90
15717;DHT22;7960;50.908;4.204;2022-10-04T15:16:04;22.00;99.90
15717;DHT22;7960;50.908;4.204;2022-10-04T15:18:47;21.60;99.90
15717;DHT22;7960;50.908;4.204;2022-10-04T15:24:29;20.60;99.90
15717;DHT22;7960;50.908;4.204;2022-10-04T15:27:25;20.20;99.90
15717;DHT22;7960;50.908;4.204;2022-10-04T15:30:10;20.30;99.90
15717;DHT22;7960;50.908;4.204;2022-10-04T15:32:43;20.30;99.90
15717;DHT22;7960;50.908;4.204;2022-10-04T15:35:21;19.90;99.90
15717;DHT22;7960;50.908;4.204;2022-10-04T15:37:54;20.00;99.90
15717;DHT22;7960;50.908;4.204;2022-10-04T15:40:33;19.90;99.90
15717;DHT22;7960;50.908;4.204;2022-10-04T15:43:23;19.90;99.90
15717;DHT22;7960;50.908;4.204;2022-10-04T15:49:27;19.80;99.90
15717;DHT22;7960;50.908;4.204;2022-10-04T15:52:45;19.80;99.90
15717;DHT22;7960;50.908;4.204;2022-10-04T15:55:20;19.60;99.90
15717;DHT22;7960;50.908;4.204;2022-10-04T16:00:59;19.50;99.90
15717;DHT22;7960;50.908;4.204;2022-10-04T16:03:36;19.50;99.90
15717;DHT22;7960;50.908;4.204;2022-10-04T16:06:09;19.40;99.90
15717;DHT22;7960;50.908;4.204;2022-10-04T16:08:55;19.30;99.90
15717;DHT22;7960;50.908;4.204;2022-10-04T16:11:49;19.20;99.90
15717;DHT22;7960;50.908;4.204;2022-10-04T16:14:43;19.20;99.90
15717;DHT22;7960;50.908;4.204;2022-10-04T16:17:49;19.00;99.90
15717;DHT22;7960;50.908;4.204;2022-10-04T16:23:30;19.10;99.90
15717;DHT22;7960;50.908;4.204;2022-10-04T16:25:59;19.10;99.90
15717;DHT22;7960;50.908;4.204;2022-10-04T16:28:53;19.00;99.90
15717;DHT22;7960;50.908;4.204;2022-10-04T16:31:39;18.80;99.90
15717;DHT22;7960;50.908;4.204;2022-10-04T16:34:35;18.80;99.90
15717;DHT22;7960;50.908;4.204;2022-10-04T16:37:14;18.90;99.90
15717;DHT22;7960;50.908;4.204;2022-10-04T16:39:50;18.90;99.90
15717;DHT22;7960;50.908;4.204;2022-10-04T16:42:48;18.70;99.90
15717;DHT22;7960;50.908;4.204;2022-10-04T16:45:41;18.60;99.90
15717;DHT22;7960;50.908;4.204;2022-10-04T16:48:24;18.50;99.90
15717;DHT22;7960;50.908;4.204;2022-10-04T16:54:33;18.50;99.90
15717;DHT22;7960;50.908;4.204;2022-10-04T16:57:18;18.50;99.90
15717;DHT22;7960;50.908;4.204;2022-10-04T16:59:49;18.40;99.90
15717;DHT22;7960;50.908;4.204;2022-10-04T17:02:30;18.10;99.90
15717;DHT22;7960;50.908;4.204;2022-10-04T17:05:28;17.90;99.90
15717;DHT22;7960;50.908;4.204;2022-10-04T17:08:14;17.70;99.90
15717;DHT22;7960;50.908;4.204;2022-10-04T17:11:06;17.50;99.90
15717;DHT22;7960;50.908;4.204;2022-10-04T17:13:48;17.50;99.90
15717;DHT22;7960;50.908;4.204;2022-10-04T17:16:22;17.40;99.90
15717;DHT22;7960;50.908;4.204;2022-10-04T17:19:08;17.30;99.90
15717;DHT22;7960;50.908;4.204;2022-10-04T17:21:42;17.30;99.90
15717;DHT22;7960;50.908;4.204;2022-10-04T17:24:20;17.40;99.90
15717;DHT22;7960;50.908;4.204;2022-10-04T17:27:02;17.30;99.90
15717;DHT22;7960;50.908;4.204;2022-10-04T17:29:52;17.20;99.90
15717;DHT22;7960;50.908;4.204;2022-10-04T17:32:24;17.10;99.90
15717;DHT22;7960;50.908;4.204;2022-10-04T17:35:05;17.10;99.90
15717;DHT22;7960;50.908;4.204;2022-10-04T17:37:42;17.00;99.90
15717;DHT22;7960;50.908;4.204;2022-10-04T17:40:28;17.20;99.90
15717;DHT22;7960;50.908;4.204;2022-10-04T17:43:05;17.20;99.90
15717;DHT22;7960;50.908;4.204;2022-10-04T17:45:49;17.20;99.90
15717;DHT22;7960;50.908;4.204;2022-10-04T17:48:20;17.20;99.90
15717;DHT22;7960;50.908;4.204;2022-10-04T17:51:14;17.10;99.90
15717;DHT22;7960;50.908;4.204;2022-10-04T17:54:03;17.00;99.90
15717;DHT22;7960;50.908;4.204;2022-10-04T17:57:12;17.00;99.90
15717;DHT22;7960;50.908;4.204;2022-10-04T17:59:45;16.90;99.90
15717;DHT22;7960;50.908;4.204;2022-10-04T18:02:18;16.90;99.90
15717;DHT22;7960;50.908;4.204;2022-10-04T18:04:50;16.80;99.90
15717;DHT22;7960;50.908;4.204;2022-10-04T18:07:21;16.70;99.90
15717;DHT22;7960;50.908;4.204;2022-10-04T18:09:51;16.60;99.90
15717;DHT22;7960;50.908;4.204;2022-10-04T18:12:28;16.70;99.90
15717;DHT22;7960;50.908;4.204;2022-10-04T18:15:02;16.90;99.90
15717;DHT22;7960;50.908;4.204;2022-10-04T18:17:37;16.80;99.90
15717;DHT22;7960;50.908;4.204;2022-10-04T18:20:23;16.90;99.90
15717;DHT22;7960;50.908;4.204;2022-10-04T18:22:56;16.90;99.90
15717;DHT22;7960;50.908;4.204;2022-10-04T18:25:25;16.70;99.90
15717;DHT22;7960;50.908;4.204;2022-10-04T18:28:01;16.60;99.90
15717;DHT22;7960;50.908;4.204;2022-10-04T18:30:32;16.60;99.90
15717;DHT22;7960;50.908;4.204;2022-10-04T18:33:01;16.60;99.90
15717;DHT22;7960;50.908;4.204;2022-10-04T18:35:36;16.70;99.90
15717;DHT22;7960;50.908;4.204;2022-10-04T18:38:20;16.70;99.90
15717;DHT22;7960;50.908;4.204;2022-10-04T18:40:54;16.70;99.90
15717;DHT22;7960;50.908;4.204;2022-10-04T18:43:28;16.60;99.90
15717;DHT22;7960;50.908;4.204;2022-10-04T18:46:01;16.60;99.90
15717;DHT22;7960;50.908;4.204;2022-10-04T18:48:42;16.70;99.90
15717;DHT22;7960;50.908;4.204;2022-10-04T18:51:28;16.60;99.90
15717;DHT22;7960;50.908;4.204;2022-10-04T18:54:05;16.60;99.90
15717;DHT22;7960;50.908;4.204;2022-10-04T18:56:43;16.60;99.90
15717;DHT22;7960;50.908;4.204;2022-10-04T18:59:14;16.80;99.90
15717;DHT22;7960;50.908;4.204;2022-10-04T19:02:13;16.80;99.90
15717;DHT22;7960;50.908;4.204;2022-10-04T19:04:44;16.60;99.90
15717;DHT22;7960;50.908;4.204;2022-10-04T19:07:15;16.50;99.90